sensor_id;sensor_type;location;lat;lon;timestamp;temperature;humidity
3996;DHT22;2012;49.794;9.722;2023-05-10T00:02:05;15.70;99.90
3996;DHT22;2012;49.794;9.722;2023-05-10T00:04:32;15.80;99.90
3996;DHT22;2012;49.794;9.722;2023-05-10T00:06:59;15.90;99.90
3996;DHT22;2012;49.794;9.722;2023-05-10T00:09:26;15.70;99.90
3996;DHT22;2012;49.794;9.722;2023-05-10T00:11:53;15.70;99.90
3996;DHT22;2012;49.794;9.722;2023-05-10T00:14:20;15.60;99.90
3996;DHT22;2012;49.794;9.722;2023-05-10T00:16:47;15.60;99.90
3996;DHT22;2012;49.794;9.722;2023-05-10T00:19:13;15.60;99.90
3996;DHT22;2012;49.794;9.722;2023-05-10T00:21:41;15.70;99.90
3996;DHT22;2012;49.794;9.722;2023-05-10T00:24:08;15.80;99.90
3996;DHT22;2012;49.794;9.722;2023-05-10T00:26:35;15.80;99.90
3996;DHT22;2012;49.794;9.722;2023-05-10T00:29:02;15.90;99.90
3996;DHT22;2012;49.794;9.722;2023-05-10T00:31:29;15.80;99.90
3996;DHT22;2012;49.794;9.722;2023-05-10T00:33:56;15.70;99.90
3996;DHT22;2012;49.794;9.722;2023-05-10T00:36:23;15.90;99.90
3996;DHT22;2012;49.794;9.722;2023-05-10T00:38:50;15.90;99.90
3996;DHT22;2012;49.794;9.722;2023-05-10T00:41:17;15.80;99.90
3996;DHT22;2012;49.794;9.722;2023-05-10T00:43:45;15.80;99.90
3996;DHT22;2012;49.794;9.722;2023-05-10T00:46:12;15.80;99.90
3996;DHT22;2012;49.794;9.722;2023-05-10T00:48:41;15.80;99.90
3996;DHT22;2012;49.794;9.722;2023-05-10T00:51:08;15.80;99.90
3996;DHT22;2012;49.794;9.722;2023-05-10T00:53:35;15.80;99.90
3996;DHT22;2012;49.794;9.722;2023-05-10T00:56:03;15.80;99.90
3996;DHT22;2012;49.794;9.722;2023-05-10T00:58:30;15.80;99.90
3996;DHT22;2012;49.794;9.722;2023-05-10T01:00:58;15.70;99.90
3996;DHT22;2012;49.794;9.722;2023-05-10T01:03:25;15.70;99.90
3996;DHT22;2012;49.794;9.722;2023-05-10T01:05:52;15.80;99.90
3996;DHT22;2012;49.794;9.722;2023-05-10T01:08:19;15.80;99.90
3996;DHT22;2012;49.794;9.722;2023-05-10T01:10:47;15.70;99.90
3996;DHT22;2012;49.794;9.722;2023-05-10T01:13:33;15.70;99.90
3996;DHT22;2012;49.794;9.722;2023-05-10T01:16:00;15.80;99.90
3996;DHT22;2012;49.794;9.722;2023-05-10T01:18:30;15.80;99.90
3996;DHT22;2012;49.794;9.722;2023-05-10T01:21:12;15.80;99.90
3996;DHT22;2012;49.794;9.722;2023-05-10T01:26:53;15.60;99.90
3996;DHT22;2012;49.794;9.722;2023-05-10T01:35:39;15.60;99.90
3996;DHT22;2012;49.794;9.722;2023-05-10T01:43:30;15.50;99.90
3996;DHT22;2012;49.794;9.722;2023-05-10T01:46:10;15.40;99.90
3996;DHT22;2012;49.794;9.722;2023-05-10T01:48:47;15.40;99.90
3996;DHT22;2012;49.794;9.722;2023-05-10T01:51:19;15.40;99.90
3996;DHT22;2012;49.794;9.722;2023-05-10T01:53:48;15.30;99.90
3996;DHT22;2012;49.794;9.722;2023-05-10T01:56:16;15.40;99.90
3996;DHT22;2012;49.794;9.722;2023-05-10T01:58:45;15.20;99.90
3996;DHT22;2012;49.794;9.722;2023-05-10T02:01:15;15.20;99.90
3996;DHT22;2012;49.794;9.722;2023-05-10T02:03:44;15.10;99.90
3996;DHT22;2012;49.794;9.722;2023-05-10T02:06:13;15.10;99.90
3996;DHT22;2012;49.794;9.722;2023-05-10T02:08:41;15.00;99.90
3996;DHT22;2012;49.794;9.722;2023-05-10T02:11:13;14.90;99.90
3996;DHT22;2012;49.794;9.722;2023-05-10T02:13:41;14.90;99.90
3996;DHT22;2012;49.794;9.722;2023-05-10T02:16:10;14.80;99.90
3996;DHT22;2012;49.794;9.722;2023-05-10T02:18:40;14.90;99.90
3996;DHT22;2012;49.794;9.722;2023-05-10T02:21:10;14.90;99.90
3996;DHT22;2012;49.794;9.722;2023-05-10T02:23:38;14.90;99.90
3996;DHT22;2012;49.794;9.722;2023-05-10T02:26:06;14.90;99.90
3996;DHT22;2012;49.794;9.722;2023-05-10T02:28:35;14.80;99.90
3996;DHT22;2012;49.794;9.722;2023-05-10T02:31:05;14.60;99.90
3996;DHT22;2012;49.794;9.722;2023-05-10T02:33:33;14.80;99.90
3996;DHT22;2012;49.794;9.722;2023-05-10T02:36:02;14.70;99.90
3996;DHT22;2012;49.794;9.722;2023-05-10T02:38:30;14.60;99.90
3996;DHT22;2012;49.794;9.722;2023-05-10T02:40:59;14.70;99.90
3996;DHT22;2012;49.794;9.722;2023-05-10T02:43:26;14.70;99.90
3996;DHT22;2012;49.794;9.722;2023-05-10T02:45:55;14.70;99.90
3996;DHT22;2012;49.794;9.722;2023-05-10T02:48:22;14.60;99.90
3996;DHT22;2012;49.794;9.722;2023-05-10T02:50:50;14.60;99.90
3996;DHT22;2012;49.794;9.722;2023-05-10T02:53:27;14.60;99.90
3996;DHT22;2012;49.794;9.722;2023-05-10T02:55:59;14.60;99.90
3996;DHT22;2012;49.794;9.722;2023-05-10T02:58:27;14.60;99.90
3996;DHT22;2012;49.794;9.722;2023-05-10T03:00:54;14.50;99.90
3996;DHT22;2012;49.794;9.722;2023-05-10T03:03:21;14.50;99.90
3996;DHT22;2012;49.794;9.722;2023-05-10T03:05:49;14.50;99.90
3996;DHT22;2012;49.794;9.722;2023-05-10T03:08:16;14.50;99.90
3996;DHT22;2012;49.794;9.722;2023-05-10T03:16:47;14.70;99.90
3996;DHT22;2012;49.794;9.722;2023-05-10T03:19:24;14.60;99.90
3996;DHT22;2012;49.794;9.722;2023-05-10T03:21:53;14.60;99.90
3996;DHT22;2012;49.794;9.722;2023-05-10T03:24:23;14.70;99.90
3996;DHT22;2012;49.794;9.722;2023-05-10T03:26:56;14.60;99.90
3996;DHT22;2012;49.794;9.722;2023-05-10T03:29:26;14.50;99.90
3996;DHT22;2012;49.794;9.722;2023-05-10T03:31:53;14.60;99.90
3996;DHT22;2012;49.794;9.722;2023-05-10T03:34:24;14.60;99.90
3996;DHT22;2012;49.794;9.722;2023-05-10T03:36:51;14.50;99.90
3996;DHT22;2012;49.794;9.722;2023-05-10T03:39:19;14.50;99.90
3996;DHT22;2012;49.794;9.722;2023-05-10T03:41:51;14.50;99.90
3996;DHT22;2012;49.794;9.722;2023-05-10T03:44:18;14.40;99.90
3996;DHT22;2012;49.794;9.722;2023-05-10T03:46:45;14.40;99.90
3996;DHT22;2012;49.794;9.722;2023-05-10T03:49:12;14.40;99.90
3996;DHT22;2012;49.794;9.722;2023-05-10T03:51:40;14.50;99.90
3996;DHT22;2012;49.794;9.722;2023-05-10T03:54:06;14.50;99.90
3996;DHT22;2012;49.794;9.722;2023-05-10T03:56:33;14.50;99.90
3996;DHT22;2012;49.794;9.722;2023-05-10T03:59:01;14.50;99.90
3996;DHT22;2012;49.794;9.722;2023-05-10T04:01:29;14.50;99.90
3996;DHT22;2012;49.794;9.722;2023-05-10T04:03:56;14.40;99.90
3996;DHT22;2012;49.794;9.722;2023-05-10T04:06:23;14.40;99.90
3996;DHT22;2012;49.794;9.722;2023-05-10T04:08:51;14.50;99.90
3996;DHT22;2012;49.794;9.722;2023-05-10T04:11:18;14.40;99.90
3996;DHT22;2012;49.794;9.722;2023-05-10T04:13:45;14.40;99.90
3996;DHT22;2012;49.794;9.722;2023-05-10T04:16:11;14.40;99.90
3996;DHT22;2012;49.794;9.722;2023-05-10T04:18:38;14.40;99.90
3996;DHT22;2012;49.794;9.722;2023-05-10T04:21:11;14.30;99.90
3996;DHT22;2012;49.794;9.722;2023-05-10T04:23:39;14.30;99.90
3996;DHT22;2012;49.794;9.722;2023-05-10T04:26:06;14.30;99.90
3996;DHT22;2012;49.794;9.722;2023-05-10T04:28:33;14.30;99.90
3996;DHT22;2012;49.794;9.722;2023-05-10T04:31:01;14.30;99.90
3996;DHT22;2012;49.794;9.722;2023-05-10T04:33:29;14.30;99.90
3996;DHT22;2012;49.794;9.722;2023-05-10T04:35:56;14.30;99.90
3996;DHT22;2012;49.794;9.722;2023-05-10T04:38:23;14.30;99.90
3996;DHT22;2012;49.794;9.722;2023-05-10T04:40:51;14.20;99.90
3996;DHT22;2012;49.794;9.722;2023-05-10T04:43:18;14.30;99.90
3996;DHT22;2012;49.794;9.722;2023-05-10T04:45:45;14.30;99.90
3996;DHT22;2012;49.794;9.722;2023-05-10T04:48:12;14.30;99.90
3996;DHT22;2012;49.794;9.722;2023-05-10T04:50:39;14.40;99.90
3996;DHT22;2012;49.794;9.722;2023-05-10T04:53:06;14.40;99.90
3996;DHT22;2012;49.794;9.722;2023-05-10T04:55:33;14.30;99.90
3996;DHT22;2012;49.794;9.722;2023-05-10T04:58:00;14.20;99.90
3996;DHT22;2012;49.794;9.722;2023-05-10T05:00:27;14.20;99.90
3996;DHT22;2012;49.794;9.722;2023-05-10T05:02:53;14.30;99.90
3996;DHT22;2012;49.794;9.722;2023-05-10T05:05:20;14.20;99.90
3996;DHT22;2012;49.794;9.722;2023-05-10T05:07:47;14.20;99.90
3996;DHT22;2012;49.794;9.722;2023-05-10T05:10:14;14.30;99.90
3996;DHT22;2012;49.794;9.722;2023-05-10T05:12:42;14.30;99.90
3996;DHT22;2012;49.794;9.722;2023-05-10T05:15:09;14.20;99.90
3996;DHT22;2012;49.794;9.722;2023-05-10T05:17:37;14.30;99.90
3996;DHT22;2012;49.794;9.722;2023-05-10T05:20:05;14.30;99.90
3996;DHT22;2012;49.794;9.722;2023-05-10T05:22:32;14.30;99.90
3996;DHT22;2012;49.794;9.722;2023-05-10T05:24:58;14.40;99.90
3996;DHT22;2012;49.794;9.722;2023-05-10T05:27:25;14.40;99.90
3996;DHT22;2012;49.794;9.722;2023-05-10T05:29:55;14.40;99.90
3996;DHT22;2012;49.794;9.722;2023-05-10T05:32:23;14.50;99.90
3996;DHT22;2012;49.794;9.722;2023-05-10T05:34:50;14.50;99.90
3996;DHT22;2012;49.794;9.722;2023-05-10T05:37:20;14.50;99.90
3996;DHT22;2012;49.794;9.722;2023-05-10T05:39:48;14.50;99.90
3996;DHT22;2012;49.794;9.722;2023-05-10T05:42:15;14.70;99.90
3996;DHT22;2012;49.794;9.722;2023-05-10T05:44:43;14.60;99.90
3996;DHT22;2012;49.794;9.722;2023-05-10T05:47:10;14.50;99.90
3996;DHT22;2012;49.794;9.722;2023-05-10T05:49:37;14.60;99.90
3996;DHT22;2012;49.794;9.722;2023-05-10T05:52:04;14.60;99.90
3996;DHT22;2012;49.794;9.722;2023-05-10T05:54:31;14.60;99.90
3996;DHT22;2012;49.794;9.722;2023-05-10T05:56:59;14.60;99.90
3996;DHT22;2012;49.794;9.722;2023-05-10T05:59:27;14.60;99.90
3996;DHT22;2012;49.794;9.722;2023-05-10T06:01:54;14.50;99.90
3996;DHT22;2012;49.794;9.722;2023-05-10T06:04:21;14.50;99.90
3996;DHT22;2012;49.794;9.722;2023-05-10T06:06:48;14.50;99.90
3996;DHT22;2012;49.794;9.722;2023-05-10T06:09:15;14.60;99.90
3996;DHT22;2012;49.794;9.722;2023-05-10T06:11:42;14.50;99.90
3996;DHT22;2012;49.794;9.722;2023-05-10T06:14:10;14.60;99.90
3996;DHT22;2012;49.794;9.722;2023-05-10T06:16:37;14.70;99.90
3996;DHT22;2012;49.794;9.722;2023-05-10T06:19:04;14.70;99.90
3996;DHT22;2012;49.794;9.722;2023-05-10T06:21:31;14.60;99.90
3996;DHT22;2012;49.794;9.722;2023-05-10T06:23:57;14.60;99.90
3996;DHT22;2012;49.794;9.722;2023-05-10T06:26:24;14.50;99.90
3996;DHT22;2012;49.794;9.722;2023-05-10T06:28:51;14.60;99.90
3996;DHT22;2012;49.794;9.722;2023-05-10T06:31:18;14.60;99.90
3996;DHT22;2012;49.794;9.722;2023-05-10T06:33:45;14.60;99.90
3996;DHT22;2012;49.794;9.722;2023-05-10T06:36:13;14.60;99.90
3996;DHT22;2012;49.794;9.722;2023-05-10T06:38:39;14.60;99.90
3996;DHT22;2012;49.794;9.722;2023-05-10T06:41:06;14.60;99.90
3996;DHT22;2012;49.794;9.722;2023-05-10T06:43:33;14.60;99.90
3996;DHT22;2012;49.794;9.722;2023-05-10T06:46:01;14.60;99.90
3996;DHT22;2012;49.794;9.722;2023-05-10T06:48:28;14.70;99.90
3996;DHT22;2012;49.794;9.722;2023-05-10T06:50:55;14.80;99.90
3996;DHT22;2012;49.794;9.722;2023-05-10T06:53:22;14.70;99.90
3996;DHT22;2012;49.794;9.722;2023-05-10T06:55:49;14.60;99.90
3996;DHT22;2012;49.794;9.722;2023-05-10T06:58:16;14.60;99.90
3996;DHT22;2012;49.794;9.722;2023-05-10T07:00:43;14.80;99.90
3996;DHT22;2012;49.794;9.722;2023-05-10T07:03:12;14.80;99.90
3996;DHT22;2012;49.794;9.722;2023-05-10T07:05:39;14.80;99.90
3996;DHT22;2012;49.794;9.722;2023-05-10T07:08:06;14.70;99.90
3996;DHT22;2012;49.794;9.722;2023-05-10T07:10:33;14.90;99.90
3996;DHT22;2012;49.794;9.722;2023-05-10T07:13:00;15.00;99.90
3996;DHT22;2012;49.794;9.722;2023-05-10T07:15:28;14.90;99.90
3996;DHT22;2012;49.794;9.722;2023-05-10T07:17:55;14.90;99.90
3996;DHT22;2012;49.794;9.722;2023-05-10T07:20:22;14.90;99.90
3996;DHT22;2012;49.794;9.722;2023-05-10T07:22:49;14.90;99.90
3996;DHT22;2012;49.794;9.722;2023-05-10T07:25:15;14.80;99.90
3996;DHT22;2012;49.794;9.722;2023-05-10T07:27:42;14.90;99.90
3996;DHT22;2012;49.794;9.722;2023-05-10T07:30:10;14.90;99.90
3996;DHT22;2012;49.794;9.722;2023-05-10T07:32:37;14.90;99.90
3996;DHT22;2012;49.794;9.722;2023-05-10T07:35:04;14.80;99.90
3996;DHT22;2012;49.794;9.722;2023-05-10T07:37:32;14.90;99.90
3996;DHT22;2012;49.794;9.722;2023-05-10T07:39:59;15.10;99.90
3996;DHT22;2012;49.794;9.722;2023-05-10T07:42:25;15.30;99.90
3996;DHT22;2012;49.794;9.722;2023-05-10T07:44:52;15.40;99.90
3996;DHT22;2012;49.794;9.722;2023-05-10T07:47:19;15.30;99.90
3996;DHT22;2012;49.794;9.722;2023-05-10T07:49:46;15.20;99.90
3996;DHT22;2012;49.794;9.722;2023-05-10T07:52:13;15.20;99.90
3996;DHT22;2012;49.794;9.722;2023-05-10T07:54:40;15.30;99.90
3996;DHT22;2012;49.794;9.722;2023-05-10T07:57:07;15.40;99.90
3996;DHT22;2012;49.794;9.722;2023-05-10T07:59:34;15.50;99.90
3996;DHT22;2012;49.794;9.722;2023-05-10T08:02:00;15.60;99.90
3996;DHT22;2012;49.794;9.722;2023-05-10T08:04:27;15.60;99.90
3996;DHT22;2012;49.794;9.722;2023-05-10T08:06:54;15.80;99.90
3996;DHT22;2012;49.794;9.722;2023-05-10T08:09:21;15.90;99.90
3996;DHT22;2012;49.794;9.722;2023-05-10T08:11:50;16.10;99.90
3996;DHT22;2012;49.794;9.722;2023-05-10T08:14:17;16.10;99.90
3996;DHT22;2012;49.794;9.722;2023-05-10T08:16:44;16.20;99.90
3996;DHT22;2012;49.794;9.722;2023-05-10T08:19:11;16.40;99.90
3996;DHT22;2012;49.794;9.722;2023-05-10T08:21:38;16.40;99.90
3996;DHT22;2012;49.794;9.722;2023-05-10T08:24:07;16.30;99.90
3996;DHT22;2012;49.794;9.722;2023-05-10T08:26:33;16.20;99.90
3996;DHT22;2012;49.794;9.722;2023-05-10T08:29:00;16.10;99.90
3996;DHT22;2012;49.794;9.722;2023-05-10T08:31:27;16.10;99.90
3996;DHT22;2012;49.794;9.722;2023-05-10T08:33:54;16.10;99.90
3996;DHT22;2012;49.794;9.722;2023-05-10T08:36:21;16.00;99.90
3996;DHT22;2012;49.794;9.722;2023-05-10T08:38:51;16.00;99.90
3996;DHT22;2012;49.794;9.722;2023-05-10T08:41:22;15.90;99.90
3996;DHT22;2012;49.794;9.722;2023-05-10T08:43:51;16.00;99.90
3996;DHT22;2012;49.794;9.722;2023-05-10T08:46:20;16.00;99.90
3996;DHT22;2012;49.794;9.722;2023-05-10T08:48:48;16.00;99.90
3996;DHT22;2012;49.794;9.722;2023-05-10T08:51:24;15.90;99.90
3996;DHT22;2012;49.794;9.722;2023-05-10T08:53:53;15.90;99.90
3996;DHT22;2012;49.794;9.722;2023-05-10T08:56:20;15.70;99.90
3996;DHT22;2012;49.794;9.722;2023-05-10T08:58:47;15.70;99.90
3996;DHT22;2012;49.794;9.722;2023-05-10T09:01:15;15.80;99.90
3996;DHT22;2012;49.794;9.722;2023-05-10T09:03:43;15.80;99.90
3996;DHT22;2012;49.794;9.722;2023-05-10T09:06:13;15.80;99.90
3996;DHT22;2012;49.794;9.722;2023-05-10T09:08:41;15.80;99.90
3996;DHT22;2012;49.794;9.722;2023-05-10T09:11:09;15.90;99.90
3996;DHT22;2012;49.794;9.722;2023-05-10T09:13:36;15.80;99.90
3996;DHT22;2012;49.794;9.722;2023-05-10T09:16:04;16.10;99.90
3996;DHT22;2012;49.794;9.722;2023-05-10T09:18:46;16.20;99.90
3996;DHT22;2012;49.794;9.722;2023-05-10T09:21:13;16.40;99.90
3996;DHT22;2012;49.794;9.722;2023-05-10T09:23:47;16.20;99.90
3996;DHT22;2012;49.794;9.722;2023-05-10T09:26:14;16.10;99.90
3996;DHT22;2012;49.794;9.722;2023-05-10T09:28:58;15.90;99.90
3996;DHT22;2012;49.794;9.722;2023-05-10T09:31:47;16.00;99.90
3996;DHT22;2012;49.794;9.722;2023-05-10T09:34:18;16.00;99.90
3996;DHT22;2012;49.794;9.722;2023-05-10T09:36:53;16.10;99.90
3996;DHT22;2012;49.794;9.722;2023-05-10T09:39:20;16.20;99.90
3996;DHT22;2012;49.794;9.722;2023-05-10T09:41:47;16.30;99.90
3996;DHT22;2012;49.794;9.722;2023-05-10T09:44:17;16.50;99.90
3996;DHT22;2012;49.794;9.722;2023-05-10T09:46:49;16.40;99.90
3996;DHT22;2012;49.794;9.722;2023-05-10T09:49:17;16.60;99.90
3996;DHT22;2012;49.794;9.722;2023-05-10T09:51:44;16.70;99.90
3996;DHT22;2012;49.794;9.722;2023-05-10T09:54:15;16.90;99.90
3996;DHT22;2012;49.794;9.722;2023-05-10T09:56:42;16.80;99.90
3996;DHT22;2012;49.794;9.722;2023-05-10T09:59:11;16.70;99.90
3996;DHT22;2012;49.794;9.722;2023-05-10T10:01:38;16.60;99.90
3996;DHT22;2012;49.794;9.722;2023-05-10T10:04:08;16.60;99.90
3996;DHT22;2012;49.794;9.722;2023-05-10T10:06:38;16.60;99.90
3996;DHT22;2012;49.794;9.722;2023-05-10T10:09:06;16.60;99.90
3996;DHT22;2012;49.794;9.722;2023-05-10T10:11:35;16.70;99.90
3996;DHT22;2012;49.794;9.722;2023-05-10T10:14:02;16.90;99.90
3996;DHT22;2012;49.794;9.722;2023-05-10T10:16:30;17.10;99.90
3996;DHT22;2012;49.794;9.722;2023-05-10T10:18:58;17.10;99.90
3996;DHT22;2012;49.794;9.722;2023-05-10T10:21:25;17.00;99.90
3996;DHT22;2012;49.794;9.722;2023-05-10T10:23:52;17.10;99.90
3996;DHT22;2012;49.794;9.722;2023-05-10T10:26:20;17.20;99.90
3996;DHT22;2012;49.794;9.722;2023-05-10T10:29:00;17.10;99.90
3996;DHT22;2012;49.794;9.722;2023-05-10T10:34:38;17.10;99.90
3996;DHT22;2012;49.794;9.722;2023-05-10T10:37:06;17.10;99.90
3996;DHT22;2012;49.794;9.722;2023-05-10T10:39:33;17.10;99.90
3996;DHT22;2012;49.794;9.722;2023-05-10T10:42:04;17.10;99.90
3996;DHT22;2012;49.794;9.722;2023-05-10T10:49:27;17.10;99.90
3996;DHT22;2012;49.794;9.722;2023-05-10T10:52:24;17.10;99.90
3996;DHT22;2012;49.794;9.722;2023-05-10T10:57:28;17.00;99.90
3996;DHT22;2012;49.794;9.722;2023-05-10T11:00:22;16.90;99.90
3996;DHT22;2012;49.794;9.722;2023-05-10T11:02:57;17.10;99.90
3996;DHT22;2012;49.794;9.722;2023-05-10T11:11:15;17.40;99.90
3996;DHT22;2012;49.794;9.722;2023-05-10T11:13:43;17.60;99.90
3996;DHT22;2012;49.794;9.722;2023-05-10T11:16:23;17.70;99.90
3996;DHT22;2012;49.794;9.722;2023-05-10T11:19:03;17.70;99.90
3996;DHT22;2012;49.794;9.722;2023-05-10T11:21:31;17.70;99.90
3996;DHT22;2012;49.794;9.722;2023-05-10T11:24:00;17.70;99.90
3996;DHT22;2012;49.794;9.722;2023-05-10T11:26:36;17.70;99.90
3996;DHT22;2012;49.794;9.722;2023-05-10T11:29:03;17.60;99.90
3996;DHT22;2012;49.794;9.722;2023-05-10T11:31:31;17.80;99.90
3996;DHT22;2012;49.794;9.722;2023-05-10T11:33:59;17.90;99.90
3996;DHT22;2012;49.794;9.722;2023-05-10T11:36:32;17.90;99.90
3996;DHT22;2012;49.794;9.722;2023-05-10T11:38:59;17.90;99.90
3996;DHT22;2012;49.794;9.722;2023-05-10T11:41:28;17.80;99.90
3996;DHT22;2012;49.794;9.722;2023-05-10T11:43:56;17.90;99.90
3996;DHT22;2012;49.794;9.722;2023-05-10T11:46:25;18.20;99.90
3996;DHT22;2012;49.794;9.722;2023-05-10T11:48:58;18.20;99.90
3996;DHT22;2012;49.794;9.722;2023-05-10T11:51:27;18.00;99.90
3996;DHT22;2012;49.794;9.722;2023-05-10T11:53:56;18.10;99.90
3996;DHT22;2012;49.794;9.722;2023-05-10T11:56:23;18.10;99.90
3996;DHT22;2012;49.794;9.722;2023-05-10T11:58:54;17.90;99.90
3996;DHT22;2012;49.794;9.722;2023-05-10T12:01:26;18.20;99.90
3996;DHT22;2012;49.794;9.722;2023-05-10T12:03:55;18.20;99.90
3996;DHT22;2012;49.794;9.722;2023-05-10T12:06:30;18.40;99.90
3996;DHT22;2012;49.794;9.722;2023-05-10T12:08:58;18.30;99.90
3996;DHT22;2012;49.794;9.722;2023-05-10T12:11:26;18.10;99.90
3996;DHT22;2012;49.794;9.722;2023-05-10T12:13:54;18.00;99.90
3996;DHT22;2012;49.794;9.722;2023-05-10T12:16:28;18.00;99.90
3996;DHT22;2012;49.794;9.722;2023-05-10T12:18:57;18.00;99.90
3996;DHT22;2012;49.794;9.722;2023-05-10T12:21:25;17.90;99.90
3996;DHT22;2012;49.794;9.722;2023-05-10T12:23:54;17.60;99.90
3996;DHT22;2012;49.794;9.722;2023-05-10T12:26:22;17.20;99.90
3996;DHT22;2012;49.794;9.722;2023-05-10T12:28:49;16.90;99.90
3996;DHT22;2012;49.794;9.722;2023-05-10T12:31:16;16.60;99.90
3996;DHT22;2012;49.794;9.722;2023-05-10T12:33:44;16.60;99.90
3996;DHT22;2012;49.794;9.722;2023-05-10T12:36:13;16.40;99.90
3996;DHT22;2012;49.794;9.722;2023-05-10T12:38:42;16.20;99.90
3996;DHT22;2012;49.794;9.722;2023-05-10T12:41:18;16.30;99.90
3996;DHT22;2012;49.794;9.722;2023-05-10T12:43:45;16.10;99.90
3996;DHT22;2012;49.794;9.722;2023-05-10T12:46:17;16.20;99.90
3996;DHT22;2012;49.794;9.722;2023-05-10T12:48:44;16.20;99.90
3996;DHT22;2012;49.794;9.722;2023-05-10T12:51:12;16.10;99.90
3996;DHT22;2012;49.794;9.722;2023-05-10T12:53:42;16.20;99.90
3996;DHT22;2012;49.794;9.722;2023-05-10T12:56:12;16.10;99.90
3996;DHT22;2012;49.794;9.722;2023-05-10T12:58:39;15.90;99.90
3996;DHT22;2012;49.794;9.722;2023-05-10T13:01:06;15.90;99.90
3996;DHT22;2012;49.794;9.722;2023-05-10T13:03:32;15.90;99.90
3996;DHT22;2012;49.794;9.722;2023-05-10T13:05:59;15.90;99.90
3996;DHT22;2012;49.794;9.722;2023-05-10T13:08:26;15.70;99.90
3996;DHT22;2012;49.794;9.722;2023-05-10T13:10:54;15.70;99.90
3996;DHT22;2012;49.794;9.722;2023-05-10T13:13:21;15.70;99.90
3996;DHT22;2012;49.794;9.722;2023-05-10T13:15:48;15.80;99.90
3996;DHT22;2012;49.794;9.722;2023-05-10T13:18:15;15.80;99.90
3996;DHT22;2012;49.794;9.722;2023-05-10T13:20:42;15.70;99.90
3996;DHT22;2012;49.794;9.722;2023-05-10T13:23:11;15.90;99.90
3996;DHT22;2012;49.794;9.722;2023-05-10T13:25:38;15.90;99.90
3996;DHT22;2012;49.794;9.722;2023-05-10T13:28:04;15.90;99.90
3996;DHT22;2012;49.794;9.722;2023-05-10T13:30:31;15.90;99.90
3996;DHT22;2012;49.794;9.722;2023-05-10T13:32:58;16.10;99.90
3996;DHT22;2012;49.794;9.722;2023-05-10T13:35:25;16.10;99.90
3996;DHT22;2012;49.794;9.722;2023-05-10T13:37:52;16.30;99.90
3996;DHT22;2012;49.794;9.722;2023-05-10T13:40:20;16.30;99.90
3996;DHT22;2012;49.794;9.722;2023-05-10T13:42:46;16.20;99.90
3996;DHT22;2012;49.794;9.722;2023-05-10T13:45:14;16.20;99.90
3996;DHT22;2012;49.794;9.722;2023-05-10T13:47:41;16.20;99.90
3996;DHT22;2012;49.794;9.722;2023-05-10T13:50:08;16.20;99.90
3996;DHT22;2012;49.794;9.722;2023-05-10T13:52:35;16.30;99.90
3996;DHT22;2012;49.794;9.722;2023-05-10T13:55:03;16.40;99.90
3996;DHT22;2012;49.794;9.722;2023-05-10T13:57:30;16.50;99.90
3996;DHT22;2012;49.794;9.722;2023-05-10T13:59:58;16.50;99.90
3996;DHT22;2012;49.794;9.722;2023-05-10T14:02:24;16.50;99.90
3996;DHT22;2012;49.794;9.722;2023-05-10T14:04:52;16.70;99.90
3996;DHT22;2012;49.794;9.722;2023-05-10T14:07:19;16.70;99.90
3996;DHT22;2012;49.794;9.722;2023-05-10T14:09:45;16.70;99.90
3996;DHT22;2012;49.794;9.722;2023-05-10T14:12:12;16.70;99.90
3996;DHT22;2012;49.794;9.722;2023-05-10T14:14:41;16.70;99.90
3996;DHT22;2012;49.794;9.722;2023-05-10T14:17:07;16.70;99.90
3996;DHT22;2012;49.794;9.722;2023-05-10T14:19:37;16.80;99.90
3996;DHT22;2012;49.794;9.722;2023-05-10T14:22:06;16.90;99.90
3996;DHT22;2012;49.794;9.722;2023-05-10T14:24:33;16.70;99.90
3996;DHT22;2012;49.794;9.722;2023-05-10T14:26:59;16.60;99.90
3996;DHT22;2012;49.794;9.722;2023-05-10T14:29:26;16.70;99.90
3996;DHT22;2012;49.794;9.722;2023-05-10T14:31:54;16.60;99.90
3996;DHT22;2012;49.794;9.722;2023-05-10T14:34:21;16.70;99.90
3996;DHT22;2012;49.794;9.722;2023-05-10T14:36:47;16.70;99.90
3996;DHT22;2012;49.794;9.722;2023-05-10T14:39:14;16.70;99.90
3996;DHT22;2012;49.794;9.722;2023-05-10T14:41:41;16.60;99.90
3996;DHT22;2012;49.794;9.722;2023-05-10T14:44:09;16.60;99.90
3996;DHT22;2012;49.794;9.722;2023-05-10T14:46:36;16.60;99.90
3996;DHT22;2012;49.794;9.722;2023-05-10T14:49:04;16.60;99.90
3996;DHT22;2012;49.794;9.722;2023-05-10T14:51:31;16.70;99.90
3996;DHT22;2012;49.794;9.722;2023-05-10T14:53:58;16.70;99.90
3996;DHT22;2012;49.794;9.722;2023-05-10T14:56:25;16.80;99.90
3996;DHT22;2012;49.794;9.722;2023-05-10T14:58:52;16.80;99.90
3996;DHT22;2012;49.794;9.722;2023-05-10T15:01:20;16.80;99.90
3996;DHT22;2012;49.794;9.722;2023-05-10T15:03:47;16.80;99.90
3996;DHT22;2012;49.794;9.722;2023-05-10T15:06:15;16.70;99.90
3996;DHT22;2012;49.794;9.722;2023-05-10T15:08:45;16.70;99.90
3996;DHT22;2012;49.794;9.722;2023-05-10T15:11:11;16.60;99.90
3996;DHT22;2012;49.794;9.722;2023-05-10T15:13:38;16.70;99.90
3996;DHT22;2012;49.794;9.722;2023-05-10T15:16:05;16.80;99.90
3996;DHT22;2012;49.794;9.722;2023-05-10T15:18:32;16.70;99.90
3996;DHT22;2012;49.794;9.722;2023-05-10T15:20:59;16.70;99.90
3996;DHT22;2012;49.794;9.722;2023-05-10T15:23:26;16.70;99.90
3996;DHT22;2012;49.794;9.722;2023-05-10T15:25:54;16.70;99.90
3996;DHT22;2012;49.794;9.722;2023-05-10T15:28:22;16.80;99.90
3996;DHT22;2012;49.794;9.722;2023-05-10T15:30:49;16.90;99.90
3996;DHT22;2012;49.794;9.722;2023-05-10T15:33:17;16.90;99.90
3996;DHT22;2012;49.794;9.722;2023-05-10T15:35:44;17.00;99.90
3996;DHT22;2012;49.794;9.722;2023-05-10T15:38:11;17.00;99.90
3996;DHT22;2012;49.794;9.722;2023-05-10T15:40:38;16.90;99.90
3996;DHT22;2012;49.794;9.722;2023-05-10T15:43:05;17.00;99.90
3996;DHT22;2012;49.794;9.722;2023-05-10T15:45:32;17.00;99.90
3996;DHT22;2012;49.794;9.722;2023-05-10T15:48:03;17.00;99.90
3996;DHT22;2012;49.794;9.722;2023-05-10T15:50:30;17.00;99.90
3996;DHT22;2012;49.794;9.722;2023-05-10T15:52:56;17.00;99.90
3996;DHT22;2012;49.794;9.722;2023-05-10T15:55:23;17.00;99.90
3996;DHT22;2012;49.794;9.722;2023-05-10T15:57:50;17.00;99.90
3996;DHT22;2012;49.794;9.722;2023-05-10T16:00:17;17.00;99.90
3996;DHT22;2012;49.794;9.722;2023-05-10T16:02:44;17.10;99.90
3996;DHT22;2012;49.794;9.722;2023-05-10T16:05:12;17.20;99.90
3996;DHT22;2012;49.794;9.722;2023-05-10T16:07:39;17.20;99.90
3996;DHT22;2012;49.794;9.722;2023-05-10T16:10:09;17.00;99.90
3996;DHT22;2012;49.794;9.722;2023-05-10T16:12:37;17.10;99.90
3996;DHT22;2012;49.794;9.722;2023-05-10T16:15:05;17.00;99.90
3996;DHT22;2012;49.794;9.722;2023-05-10T16:17:32;17.10;99.90
3996;DHT22;2012;49.794;9.722;2023-05-10T16:19:59;17.10;99.90
3996;DHT22;2012;49.794;9.722;2023-05-10T16:22:26;17.30;99.90
3996;DHT22;2012;49.794;9.722;2023-05-10T16:24:56;17.30;99.90
3996;DHT22;2012;49.794;9.722;2023-05-10T16:27:23;17.20;99.90
3996;DHT22;2012;49.794;9.722;2023-05-10T16:29:50;17.00;99.90
3996;DHT22;2012;49.794;9.722;2023-05-10T16:32:17;16.90;99.90
3996;DHT22;2012;49.794;9.722;2023-05-10T16:34:44;17.00;99.90
3996;DHT22;2012;49.794;9.722;2023-05-10T16:37:11;16.80;99.90
3996;DHT22;2012;49.794;9.722;2023-05-10T16:39:38;16.60;99.90
3996;DHT22;2012;49.794;9.722;2023-05-10T16:42:05;16.70;99.90
3996;DHT22;2012;49.794;9.722;2023-05-10T16:44:31;16.70;99.90
3996;DHT22;2012;49.794;9.722;2023-05-10T16:46:58;16.60;99.90